KWRI/WRI METAR and TAF weather

Enter ICAO airport designator
Station Type Date Time Source
KWRI METAR 2023/02/05 23:55 UTC NOAA

KWRI 052355Z AUTO 20004KT 10SM CLR 06/M04 A3002 RMK AO2 SLP167 T00571045 10118 20057 55007 $


Station Type Date Time Source
KWRI Decoded METAR 2023/02/05 23:55 UTC NOAA

Mcguire Air Force Base, NJ, United States (KWRI) 40-01N 074-36W
Feb 05, 2023 - 06:55 PM EST / 2023.02.05 2355 UTC
Wind: from the SSW (200 degrees) at 5 MPH (4 KT):0
Visibility: 10 mile(s):0
Sky conditions: clear
Temperature: 42.3 F (5.7 C)
Dew Point: 23.9 F (-4.5 C)
Relative Humidity: 47%
Pressure (altimeter): 30.02 in. Hg (1016 hPa)
Pressure tendency: 0.02 inches (0.7 hPa) lower than three hours ago
ob: KWRI 052355Z AUTO 20004KT 10SM CLR 06/M04 A3002 RMK AO2 SLP167 T00571045 10118 20057 55007
cycle: 0

Station Type Date Time Source
KWRI TAF 2023/02/05 18:10 UTC NOAA

TAF KWRI 051800Z 0518/0624 21010KT 9999 BKN180 QNH3000INS
BECMG 0607/0608 30006KT 9999 BKN050 510208 QNH2997INS
BECMG 0614/0615 33010G18KT 9999 BKN035 QNH3001INS
BECMG 0620/0621 35010KT 9999 SCT050 QNH3012INS TX09/0519Z TN00/0610Z

Example: see airport list